createdAt,value
2023-05-10T00:02:17.533Z,100421.34
2023-05-10T00:04:46.717Z,100429.63
2023-05-10T00:07:14.564Z,100423.44
2023-05-10T00:09:42.337Z,100419.81
2023-05-10T00:12:10.228Z,100420.84
2023-05-10T00:14:38.011Z,100428.25
2023-05-10T00:17:05.914Z,100420.00
2023-05-10T00:19:33.732Z,100421.88
2023-05-10T00:22:02.940Z,100425.50
2023-05-10T00:24:30.778Z,100427.56
2023-05-10T00:26:58.653Z,100428.41
2023-05-10T00:29:26.493Z,100421.19
2023-05-10T00:31:54.900Z,100425.84
2023-05-10T00:34:22.868Z,100426.88
2023-05-10T00:36:50.720Z,100426.00
2023-05-10T00:39:20.038Z,100418.78
2023-05-10T00:41:48.008Z,100411.72
2023-05-10T00:44:17.139Z,100416.38
2023-05-10T00:46:46.202Z,100414.66
2023-05-10T00:49:15.129Z,100418.25
2023-05-10T00:51:43.930Z,100422.22
2023-05-10T00:54:13.076Z,100426.69
2023-05-10T00:56:42.742Z,100423.94
2023-05-10T00:59:11.001Z,100426.00
2023-05-10T01:01:39.913Z,100423.44
2023-05-10T01:04:07.798Z,100428.94
2023-05-10T01:06:35.648Z,100432.72
2023-05-10T01:09:03.502Z,100429.13
2023-05-10T01:11:31.400Z,100426.53
2023-05-10T01:14:01.452Z,100422.75
2023-05-10T01:16:31.778Z,100432.91
2023-05-10T01:19:00.172Z,100432.19
2023-05-10T01:21:34.345Z,100438.41
2023-05-10T01:24:44.324Z,100437.19
2023-05-10T01:27:32.381Z,100432.56
2023-05-10T01:30:50.937Z,100434.22
2023-05-10T01:33:25.707Z,100433.75
2023-05-10T01:36:01.487Z,100435.47
2023-05-10T01:38:39.026Z,100429.09
2023-05-10T01:41:15.009Z,100433.75
2023-05-10T01:43:54.836Z,100425.50
2023-05-10T01:46:29.270Z,100441.44
2023-05-10T01:49:01.584Z,100442.31
2023-05-10T01:51:38.369Z,100439.56
2023-05-10T01:54:08.024Z,100440.78
2023-05-10T01:56:39.664Z,100439.91
2023-05-10T01:59:11.364Z,100442.66
2023-05-10T02:01:40.046Z,100439.38
2023-05-10T02:04:11.608Z,100443.53
2023-05-10T02:06:41.635Z,100440.94
2023-05-10T02:09:11.112Z,100448.34
2023-05-10T02:11:40.541Z,100440.06
2023-05-10T02:14:11.555Z,100439.03
2023-05-10T02:16:41.683Z,100434.56
2023-05-10T02:19:12.627Z,100440.06
2023-05-10T02:21:42.024Z,100443.69
2023-05-10T02:24:12.488Z,100449.34
2023-05-10T02:26:40.620Z,100452.97
2023-05-10T02:29:09.929Z,100456.59
2023-05-10T02:31:39.796Z,100452.13
2023-05-10T02:34:10.615Z,100454.69
2023-05-10T02:36:43.748Z,100461.06
2023-05-10T02:39:13.768Z,100461.25
2023-05-10T02:41:43.057Z,100468.63
2023-05-10T02:44:11.904Z,100465.88
2023-05-10T02:46:40.122Z,100464.16
2023-05-10T02:49:08.037Z,100454.16
2023-05-10T02:51:39.476Z,100467.59
2023-05-10T02:54:17.526Z,100460.22
2023-05-10T02:56:51.496Z,100460.38
2023-05-10T02:59:19.606Z,100451.41
2023-05-10T03:01:47.532Z,100464.16
2023-05-10T03:04:15.881Z,100461.41
2023-05-10T03:06:43.866Z,100461.41
2023-05-10T03:09:16.432Z,100468.47
2023-05-10T03:11:57.456Z,100467.78
2023-05-10T03:14:36.862Z,100466.75
2023-05-10T03:17:10.900Z,100465.00
2023-05-10T03:19:45.382Z,100466.75
2023-05-10T03:22:17.650Z,100468.78
2023-05-10T03:24:48.734Z,100467.06
2023-05-10T03:27:18.470Z,100471.88
2023-05-10T03:29:47.852Z,100470.84
2023-05-10T03:32:16.368Z,100478.25
2023-05-10T03:34:44.700Z,100479.31
2023-05-10T03:37:12.661Z,100482.88
2023-05-10T03:39:40.548Z,100479.31
2023-05-10T03:42:13.115Z,100481.84
2023-05-10T03:44:41.246Z,100486.69
2023-05-10T03:47:10.396Z,100484.81
2023-05-10T03:49:38.412Z,100483.94
2023-05-10T03:52:06.344Z,100482.88
2023-05-10T03:54:34.261Z,100488.38
2023-05-10T03:57:02.406Z,100485.63
2023-05-10T03:59:32.378Z,100490.97
2023-05-10T04:02:00.327Z,100504.91
2023-05-10T04:04:28.301Z,100497.50
2023-05-10T04:06:56.246Z,100493.91
2023-05-10T04:09:24.091Z,100504.91
2023-05-10T04:11:52.111Z,100503.03
2023-05-10T04:14:19.905Z,100501.31
2023-05-10T04:16:49.166Z,100500.97
2023-05-10T04:19:17.203Z,100500.25
2023-05-10T04:21:45.010Z,100503.88
2023-05-10T04:24:13.517Z,100494.75
2023-05-10T04:26:41.535Z,100498.38
2023-05-10T04:29:09.397Z,100493.06
2023-05-10T04:31:37.273Z,100495.81
2023-05-10T04:34:06.641Z,100492.88
2023-05-10T04:36:36.346Z,100496.84
2023-05-10T04:39:04.784Z,100490.31
2023-05-10T04:41:32.656Z,100497.72
2023-05-10T04:44:00.445Z,100492.19
2023-05-10T04:46:28.365Z,100492.19
2023-05-10T04:48:56.188Z,100497.72
2023-05-10T04:51:25.439Z,100507.66
2023-05-10T04:54:05.066Z,100507.84
2023-05-10T04:56:34.793Z,100507.00
2023-05-10T04:59:02.798Z,100508.72
2023-05-10T05:01:30.758Z,100510.59
2023-05-10T05:03:58.880Z,100514.22
2023-05-10T05:06:28.375Z,100515.91
2023-05-10T05:08:56.156Z,100518.88
2023-05-10T05:11:24.011Z,100518.88
2023-05-10T05:13:51.879Z,100520.75
2023-05-10T05:16:19.862Z,100522.47
2023-05-10T05:18:47.799Z,100521.63
2023-05-10T05:21:17.341Z,100526.09
2023-05-10T05:23:47.329Z,100522.47
2023-05-10T05:26:15.875Z,100528.00
2023-05-10T05:28:44.506Z,100532.63
2023-05-10T05:31:13.109Z,100532.63
2023-05-10T05:33:41.237Z,100542.63
2023-05-10T05:36:09.504Z,100539.16
2023-05-10T05:38:37.646Z,100543.81
2023-05-10T05:41:07.348Z,100536.41
2023-05-10T05:43:38.069Z,100542.78
2023-05-10T05:46:07.012Z,100547.25
2023-05-10T05:48:34.982Z,100548.28
2023-05-10T05:51:03.436Z,100552.06
2023-05-10T05:53:32.514Z,100566.53
2023-05-10T05:56:00.924Z,100562.91
2023-05-10T05:58:30.175Z,100562.06
2023-05-10T06:00:58.362Z,100564.97
2023-05-10T06:03:26.517Z,100568.75
2023-05-10T06:05:54.674Z,100575.28
2023-05-10T06:08:22.628Z,100580.78
2023-05-10T06:10:50.543Z,100572.69
2023-05-10T06:13:18.438Z,100581.78
2023-05-10T06:15:47.931Z,100579.03
2023-05-10T06:18:15.892Z,100584.72
2023-05-10T06:20:44.175Z,100573.88
2023-05-10T06:23:12.055Z,100587.66
2023-05-10T06:25:40.181Z,100595.19
2023-05-10T06:28:08.377Z,100591.44
2023-05-10T06:30:38.286Z,100590.56
2023-05-10T06:33:07.768Z,100596.06
2023-05-10T06:35:35.669Z,100596.38
2023-05-10T06:38:03.640Z,100610.84
2023-05-10T06:40:31.658Z,100604.31
2023-05-10T06:42:59.597Z,100609.84
2023-05-10T06:45:27.606Z,100612.59
2023-05-10T06:47:55.607Z,100611.56
2023-05-10T06:50:24.928Z,100610.53
2023-05-10T06:52:53.259Z,100609.84
2023-05-10T06:55:21.262Z,100616.19
2023-05-10T06:57:51.483Z,100613.28
2023-05-10T07:00:21.039Z,100622.72
2023-05-10T07:02:49.934Z,100625.47
2023-05-10T07:05:18.336Z,100620.84
2023-05-10T07:07:47.942Z,100624.31
2023-05-10T07:10:15.953Z,100617.38
2023-05-10T07:12:44.213Z,100624.47
2023-05-10T07:15:12.763Z,100619.81
2023-05-10T07:17:43.242Z,100617.75
2023-05-10T07:20:13.952Z,100626.19
2023-05-10T07:22:41.948Z,100618.44
2023-05-10T07:25:11.957Z,100623.63
2023-05-10T07:27:39.995Z,100623.63
2023-05-10T07:30:09.399Z,100624.34
2023-05-10T07:32:37.475Z,100630.00
2023-05-10T07:35:06.621Z,100628.78
2023-05-10T07:37:34.981Z,100621.59
2023-05-10T07:40:03.252Z,100627.59
2023-05-10T07:42:32.748Z,100624.84
2023-05-10T07:45:00.738Z,100622.09
2023-05-10T07:47:28.737Z,100634.69
2023-05-10T07:49:56.637Z,100639.16
2023-05-10T07:52:24.512Z,100640.03
2023-05-10T07:54:52.441Z,100642.44
2023-05-10T07:57:20.416Z,100640.72
2023-05-10T07:59:49.879Z,100640.44
2023-05-10T08:02:17.854Z,100648.81
2023-05-10T08:04:45.897Z,100631.25
2023-05-10T08:07:13.973Z,100643.19
2023-05-10T08:09:41.975Z,100648.53
2023-05-10T08:12:10.078Z,100642.00
2023-05-10T08:14:38.532Z,100652.84
2023-05-10T08:17:07.972Z,100650.63
2023-05-10T08:19:36.119Z,100652.50
2023-05-10T08:22:04.166Z,100656.81
2023-05-10T08:24:32.180Z,100663.56
2023-05-10T08:27:00.183Z,100663.22
2023-05-10T08:29:30.444Z,100666.34
2023-05-10T08:31:58.511Z,100669.81
2023-05-10T08:34:27.999Z,100660.34
2023-05-10T08:36:56.565Z,100663.63
2023-05-10T08:39:30.270Z,100672.59
2023-05-10T08:42:04.316Z,100680.03
2023-05-10T08:44:34.492Z,100680.19
2023-05-10T08:47:21.769Z,100675.22
2023-05-10T08:49:52.933Z,100676.78
2023-05-10T08:52:21.710Z,100682.81
2023-05-10T08:54:49.862Z,100677.84
2023-05-10T08:57:18.322Z,100681.09
2023-05-10T08:59:46.395Z,100690.94
2023-05-10T09:02:18.608Z,100692.31
2023-05-10T09:04:46.950Z,100696.13
2023-05-10T09:07:16.972Z,100696.63
2023-05-10T09:09:45.550Z,100700.25
2023-05-10T09:12:16.599Z,100700.97
2023-05-10T09:14:46.780Z,100701.81
2023-05-10T09:17:15.427Z,100704.75
2023-05-10T09:19:43.644Z,100705.75
2023-05-10T09:22:12.596Z,100715.59
2023-05-10T09:24:46.145Z,100707.16
2023-05-10T09:27:14.859Z,100704.91
2023-05-10T09:29:45.349Z,100711.97
2023-05-10T09:32:14.327Z,100712.69
2023-05-10T09:34:43.821Z,100714.75
2023-05-10T09:37:12.409Z,100722.84
2023-05-10T09:39:42.479Z,100719.06
2023-05-10T09:42:14.222Z,100720.75
2023-05-10T09:44:44.802Z,100722.66
2023-05-10T09:47:13.062Z,100730.75
2023-05-10T09:49:41.352Z,100725.94
2023-05-10T09:52:10.205Z,100734.06
2023-05-10T09:54:39.084Z,100729.25
2023-05-10T09:57:33.390Z,100737.16
2023-05-10T10:00:05.606Z,100727.16
2023-05-10T10:02:41.784Z,100730.78
2023-05-10T10:05:10.636Z,100732.34
2023-05-10T10:07:38.861Z,100738.72
2023-05-10T10:10:12.577Z,100727.69
2023-05-10T10:12:43.662Z,100736.69
2023-05-10T10:15:13.492Z,100732.94
2023-05-10T10:17:45.014Z,100733.91
2023-05-10T10:20:13.883Z,100742.34
2023-05-10T10:22:42.023Z,100736.84
2023-05-10T10:25:10.871Z,100745.97
2023-05-10T10:27:50.958Z,100751.31
2023-05-10T10:30:28.400Z,100754.97
2023-05-10T10:33:27.831Z,100742.34
2023-05-10T10:36:00.013Z,100749.47
2023-05-10T10:38:28.408Z,100754.09
2023-05-10T10:41:05.070Z,100751.72
2023-05-10T10:43:34.419Z,100755.50
2023-05-10T10:46:15.922Z,100752.25
2023-05-10T10:48:49.049Z,100751.38
2023-05-10T10:51:16.937Z,100747.25
2023-05-10T10:53:45.461Z,100745.69
2023-05-10T10:56:16.243Z,100749.16
2023-05-10T10:58:52.251Z,100753.97
2023-05-10T11:01:21.572Z,100757.59
2023-05-10T11:04:21.656Z,100757.28
2023-05-10T11:06:49.841Z,100756.41
2023-05-10T11:09:18.785Z,100757.97
2023-05-10T11:11:57.117Z,100754.69
2023-05-10T11:14:27.549Z,100757.13
2023-05-10T11:16:55.391Z,100757.28
2023-05-10T11:19:23.454Z,100771.63
2023-05-10T11:21:53.194Z,100765.75
2023-05-10T11:24:23.109Z,100773.16
2023-05-10T11:26:53.282Z,100776.63
2023-05-10T11:29:21.472Z,100777.66
2023-05-10T11:31:51.939Z,100775.59
2023-05-10T11:34:31.255Z,100780.94
2023-05-10T11:37:37.736Z,100782.84
2023-05-10T11:53:45.520Z,100781.25
2023-05-10T11:56:14.968Z,100779.22
2023-05-10T11:58:43.183Z,100772.28
2023-05-10T12:01:13.983Z,100786.47
2023-05-10T12:03:42.782Z,100783.53
2023-05-10T12:06:10.880Z,100786.09
2023-05-10T12:08:46.290Z,100786.81
2023-05-10T12:11:17.099Z,100781.81
2023-05-10T12:13:47.623Z,100783.34
2023-05-10T12:16:16.604Z,100778.69
2023-05-10T12:18:47.584Z,100783.88
2023-05-10T12:21:16.909Z,100784.59
2023-05-10T12:23:47.168Z,100792.69
2023-05-10T12:26:16.994Z,100794.06
2023-05-10T12:28:45.304Z,100792.16
2023-05-10T12:31:13.468Z,100795.78
2023-05-10T12:33:43.764Z,100789.25
2023-05-10T12:36:13.034Z,100793.91
2023-05-10T12:55:58.100Z,100805.81
2023-05-10T12:58:35.089Z,100803.75
2023-05-10T13:01:05.228Z,100803.91
2023-05-10T13:03:33.576Z,100812.19
2023-05-10T13:06:02.210Z,100809.44
2023-05-10T13:08:34.603Z,100811.31
2023-05-10T13:11:05.493Z,100815.97
2023-05-10T13:13:35.819Z,100815.09
2023-05-10T13:16:04.286Z,100822.34
2023-05-10T13:18:32.710Z,100820.31
2023-05-10T13:21:00.852Z,100819.25
2023-05-10T13:23:29.252Z,100815.63
2023-05-10T13:25:57.459Z,100812.84
2023-05-10T13:28:27.663Z,100822.53
2023-05-10T13:30:56.045Z,100818.22
2023-05-10T13:33:24.463Z,100818.03
2023-05-10T13:35:55.563Z,100819.06
2023-05-10T13:38:24.171Z,100818.22
2023-05-10T13:40:53.824Z,100810.78
2023-05-10T13:43:22.102Z,100817.19
2023-05-10T13:45:51.522Z,100811.50
2023-05-10T13:48:19.763Z,100812.53
2023-05-10T13:50:48.206Z,100809.75
2023-05-10T13:53:16.564Z,100816.16
2023-05-10T13:55:44.850Z,100805.97
2023-05-10T13:58:13.419Z,100805.97
2023-05-10T14:00:41.551Z,100810.63
2023-05-10T14:03:12.636Z,100803.91
2023-05-10T14:05:40.989Z,100803.22
2023-05-10T14:08:10.378Z,100804.94
2023-05-10T14:10:40.936Z,100807.69
2023-05-10T14:13:21.756Z,100800.97
2023-05-10T14:15:49.998Z,100796.50
2023-05-10T14:18:19.665Z,100798.88
2023-05-10T14:20:48.402Z,100798.03
2023-05-10T14:23:41.993Z,100795.97
2023-05-10T14:26:18.234Z,100797.00
2023-05-10T14:29:49.729Z,100804.63
2023-05-10T14:32:45.212Z,100798.72
2023-05-10T14:36:34.551Z,100795.09
2023-05-10T14:44:01.807Z,100797.53
2023-05-10T14:46:37.437Z,100801.16
2023-05-10T14:49:11.186Z,100801.34
2023-05-10T14:51:58.547Z,100801.34
2023-05-10T14:54:42.330Z,100794.97
2023-05-10T14:57:40.846Z,100799.28
2023-05-10T15:00:32.056Z,100795.28
2023-05-10T15:03:37.807Z,100791.66
2023-05-10T15:15:00.844Z,100781.84
2023-05-10T15:17:35.561Z,100784.44
2023-05-10T15:20:16.082Z,100789.78
2023-05-10T15:22:52.870Z,100792.38
2023-05-10T15:25:21.243Z,100795.13
2023-05-10T15:28:32.430Z,100794.09
2023-05-10T15:31:25.092Z,100784.09
2023-05-10T15:33:59.127Z,100798.91
2023-05-10T15:36:26.989Z,100796.16
2023-05-10T15:38:55.813Z,100794.97
2023-05-10T15:41:23.721Z,100794.78
2023-05-10T15:43:51.537Z,100794.63
2023-05-10T15:46:19.440Z,100787.88
2023-05-10T15:48:47.355Z,100792.19
2023-05-10T15:51:16.707Z,100798.25
2023-05-10T15:53:53.099Z,100806.53
2023-05-10T15:56:28.505Z,100803.56
2023-05-10T15:58:56.360Z,100804.25
2023-05-10T16:01:24.339Z,100812.38
2023-05-10T16:03:52.332Z,100804.78
2023-05-10T16:06:21.590Z,100809.06
2023-05-10T16:08:56.270Z,100799.97
2023-05-10T16:11:24.207Z,100811.00
2023-05-10T16:13:52.795Z,100816.34
2023-05-10T16:16:20.813Z,100814.44
2023-05-10T16:18:48.739Z,100813.41
2023-05-10T16:21:16.833Z,100814.09
2023-05-10T16:23:46.730Z,100810.13
2023-05-10T16:26:14.666Z,100811.16
2023-05-10T16:28:42.575Z,100818.22
2023-05-10T16:31:10.677Z,100819.94
2023-05-10T16:33:38.558Z,100821.69
2023-05-10T16:36:06.604Z,100828.94
2023-05-10T16:38:34.657Z,100840.84
2023-05-10T16:41:04.739Z,100839.66
2023-05-10T16:43:33.584Z,100838.78
2023-05-10T16:46:01.443Z,100851.75
2023-05-10T16:48:29.270Z,100850.88
2023-05-10T16:50:57.089Z,100850.88
2023-05-10T16:53:25.014Z,100850.00
2023-05-10T16:55:52.811Z,100858.47
2023-05-10T16:58:22.167Z,100863.81
2023-05-10T17:00:50.193Z,100868.81
2023-05-10T17:03:18.160Z,100867.97
2023-05-10T17:05:46.046Z,100874.72
2023-05-10T17:08:13.868Z,100875.75
2023-05-10T17:10:41.789Z,100867.63
2023-05-10T17:13:10.594Z,100871.59
2023-05-10T17:15:40.476Z,100867.81
2023-05-10T17:18:10.181Z,100879.22
2023-05-10T17:20:39.249Z,100879.38
2023-05-10T17:23:07.369Z,100876.78
2023-05-10T17:25:36.231Z,100882.31
2023-05-10T17:28:04.426Z,100884.38
2023-05-10T17:30:32.897Z,100882.66
2023-05-10T17:33:02.217Z,100884.53
2023-05-10T17:35:31.519Z,100888.53
2023-05-10T17:37:59.432Z,100902.50
2023-05-10T17:40:27.216Z,100898.72
2023-05-10T17:42:55.026Z,100899.06
2023-05-10T17:45:22.800Z,100895.44
2023-05-10T17:47:50.743Z,100894.56
2023-05-10T17:50:19.943Z,100900.09
2023-05-10T17:52:47.711Z,100898.56
2023-05-10T17:55:15.910Z,100895.09
2023-05-10T17:57:44.350Z,100908.03
2023-05-10T18:00:13.500Z,100903.38
2023-05-10T18:02:42.524Z,100908.19
2023-05-10T18:05:11.617Z,100915.47
2023-05-10T18:07:40.997Z,100917.34
2023-05-10T18:10:09.890Z,100915.78
2023-05-10T18:12:37.709Z,100917.69
2023-05-10T18:15:06.114Z,100920.44
2023-05-10T18:17:34.973Z,100913.19
2023-05-10T18:20:03.200Z,100914.25
2023-05-10T18:22:31.014Z,100909.91
2023-05-10T18:25:00.325Z,100914.41
2023-05-10T18:27:28.366Z,100915.59
2023-05-10T18:29:56.250Z,100917.66
2023-05-10T18:32:24.916Z,100919.56
2023-05-10T18:34:54.967Z,100922.69
2023-05-10T18:37:23.683Z,100928.38
2023-05-10T18:39:51.844Z,100932.16
2023-05-10T18:42:21.577Z,100928.53
2023-05-10T18:44:49.578Z,100932.66
2023-05-10T18:47:17.399Z,100931.94
2023-05-10T18:49:46.179Z,100934.00
2023-05-10T18:52:16.018Z,100935.91
2023-05-10T18:54:43.832Z,100929.88
2023-05-10T18:57:12.419Z,100935.41
2023-05-10T18:59:41.715Z,100929.00
2023-05-10T19:02:09.705Z,100935.00
2023-05-10T19:04:37.784Z,100938.81
2023-05-10T19:07:05.673Z,100938.13
2023-05-10T19:09:33.516Z,100936.56
2023-05-10T19:12:01.562Z,100933.97
2023-05-10T19:14:29.732Z,100930.69
2023-05-10T19:17:01.190Z,100938.97
2023-05-10T19:19:30.395Z,100946.72
2023-05-10T19:21:59.215Z,100947.91
2023-05-10T19:24:27.152Z,100952.75
2023-05-10T19:26:56.348Z,100951.16
2023-05-10T19:29:24.404Z,100956.84
2023-05-10T19:31:52.982Z,100958.91
2023-05-10T19:34:22.336Z,100964.41
2023-05-10T19:36:50.246Z,100958.53
2023-05-10T19:39:18.209Z,100969.75
2023-05-10T19:41:46.058Z,100960.75
2023-05-10T19:44:13.932Z,100964.53
2023-05-10T19:46:41.935Z,100970.25
2023-05-10T19:49:09.749Z,100963.16
2023-05-10T19:51:39.017Z,100973.31
2023-05-10T19:54:07.216Z,100972.78
2023-05-10T19:56:35.144Z,100970.38
2023-05-10T19:59:04.015Z,100971.72
2023-05-10T20:01:32.800Z,100982.06
2023-05-10T20:04:00.914Z,100980.66
2023-05-10T20:06:28.940Z,100976.47
2023-05-10T20:08:58.202Z,100977.53
2023-05-10T20:11:26.030Z,100968.84
2023-05-10T20:13:54.025Z,100982.81
2023-05-10T20:16:22.599Z,100975.59
2023-05-10T20:18:53.644Z,100968.47
2023-05-10T20:21:23.895Z,100976.88
2023-05-10T20:23:51.779Z,100974.28
2023-05-10T20:26:21.659Z,100980.81
2023-05-10T20:28:49.529Z,100969.28
2023-05-10T20:31:17.663Z,100969.59
2023-05-10T20:33:45.563Z,100978.19
2023-05-10T20:36:13.757Z,100983.00
2023-05-10T20:38:41.557Z,100975.03
2023-05-10T20:41:09.400Z,100975.34
2023-05-10T20:43:38.805Z,100978.09
2023-05-10T20:46:07.064Z,100968.44
2023-05-10T20:48:35.164Z,100976.88
2023-05-10T20:51:03.331Z,100967.88
2023-05-10T20:53:31.195Z,100972.53
2023-05-10T20:55:58.965Z,100973.59
2023-05-10T20:58:27.079Z,100976.34
2023-05-10T21:00:56.354Z,100975.13
2023-05-10T21:03:24.410Z,100988.25
2023-05-10T21:05:52.289Z,100971.69
2023-05-10T21:08:20.178Z,100972.72
2023-05-10T21:10:48.037Z,100978.22
2023-05-10T21:13:16.336Z,100973.59
2023-05-10T21:15:44.105Z,100978.22
2023-05-10T21:18:13.308Z,100979.97
2023-05-10T21:20:41.147Z,100985.63
2023-05-10T21:23:08.990Z,100977.53
2023-05-10T21:25:37.624Z,100982.00
2023-05-10T21:28:05.704Z,100973.91
2023-05-10T21:30:33.705Z,100976.81
2023-05-10T21:33:02.602Z,100976.81
2023-05-10T21:35:31.936Z,100975.94
2023-05-10T21:37:59.741Z,100973.53
2023-05-10T21:40:27.640Z,100977.16
2023-05-10T21:42:55.502Z,100980.94
2023-05-10T21:45:23.363Z,100980.06
2023-05-10T21:47:51.184Z,100983.69
2023-05-10T21:50:19.510Z,100979.03
2023-05-10T21:52:48.906Z,100983.50
2023-05-10T21:55:16.995Z,100982.66
2023-05-10T21:57:45.357Z,100981.78
2023-05-10T22:00:16.260Z,100982.47
2023-05-10T22:02:44.314Z,100979.91
2023-05-10T22:05:12.373Z,100983.50
2023-05-10T22:07:40.221Z,100981.59
2023-05-10T22:10:10.263Z,100981.47
2023-05-10T22:12:38.125Z,100975.41
2023-05-10T22:15:10.508Z,100979.91
2023-05-10T22:17:39.896Z,100982.66
2023-05-10T22:20:09.425Z,100986.25
2023-05-10T22:22:37.655Z,100984.56
2023-05-10T22:25:07.560Z,100984.56
2023-05-10T22:27:37.006Z,100986.25
2023-05-10T22:30:05.601Z,100984.56
2023-05-10T22:32:34.115Z,100983.50
2023-05-10T22:35:02.174Z,100991.94
2023-05-10T22:37:30.019Z,100985.56
2023-05-10T22:39:57.813Z,100984.56
2023-05-10T22:42:25.600Z,100991.09
2023-05-10T22:44:54.880Z,100986.25
2023-05-10T22:47:22.818Z,100980.06
2023-05-10T22:49:50.606Z,100983.84
2023-05-10T22:52:18.359Z,100994.00
2023-05-10T22:54:46.293Z,100995.00
2023-05-10T22:57:14.403Z,101001.53
2023-05-10T22:59:42.461Z,100993.28
2023-05-10T23:02:14.155Z,100994.00
2023-05-10T23:04:42.203Z,100995.50
2023-05-10T23:07:10.180Z,100998.06
2023-05-10T23:09:38.003Z,101006.53
2023-05-10T23:12:05.887Z,101005.47
2023-05-10T23:14:33.783Z,101000.16
2023-05-10T23:17:01.596Z,101006.53
2023-05-10T23:19:30.903Z,101004.63
2023-05-10T23:21:59.347Z,101003.78
2023-05-10T23:24:27.294Z,101009.44
2023-05-10T23:26:55.083Z,101003.94
2023-05-10T23:29:23.865Z,101006.69
2023-05-10T23:31:51.716Z,101014.94
2023-05-10T23:34:19.696Z,101003.06
2023-05-10T23:36:48.830Z,100999.13
2023-05-10T23:39:16.663Z,101004.78
2023-05-10T23:41:44.612Z,101004.78
2023-05-10T23:44:12.555Z,100992.03
2023-05-10T23:46:40.343Z,100996.69
2023-05-10T23:49:08.119Z,100995.81
2023-05-10T23:51:36.052Z,100991.16
2023-05-10T23:54:05.321Z,101007.41
2023-05-10T23:56:33.184Z,100997.69
2023-05-10T23:59:01.268Z,100998.72
